CheckWX is a tool to help pilots better visualize weather data.  It is not intended as a substitute for an official pre-flight weather briefing.

12:04:26 UTC

KDZJ METAR
Blairsville Airport
Blairsville, Georgia, USA
Current

9 mins ago

KDZJ 201155Z AUTO 00000KT 1 1/2SM BR OVC002 17/17 A3021 RMK AO2 T01700170 10180 20159 70004
Observed
Aug-20 @ 11:55 UTC
Visibility
1 1/2 SM
Flight Rules
LIFR
Conditions
Mist
Cloud Levels
  • Overcast at 200' AGL
Temperature
17°C / 63°F
Dewpoint
17°C / 63°F
Humidity
100%
Altimeter
30.21" Hg
Pressure
1023.02 hPa
24 Hour Rain
0.04"
Previous

29 mins ago

KDZJ 201135Z AUTO 00000KT M1/4SM FG OVC002 17/17 A3021 RMK AO2 T01670166
Observed
Aug-20 @ 11:35 UTC
Visibility
1/4 SM
Flight Rules
LIFR
Conditions
Fog
Cloud Levels
  • Overcast at 200' AGL
Temperature
17°C / 63°F
Dewpoint
17°C / 63°F
Humidity
100%
Altimeter
30.21" Hg
Pressure
1023.02 hPa
Previous

49 mins ago

KDZJ 201115Z AUTO 00000KT 1/4SM FG OVC002 16/16 A3021 RMK AO2 T01610160
Observed
Aug-20 @ 11:15 UTC
Visibility
1/4 SM
Flight Rules
LIFR
Conditions
Fog
Cloud Levels
  • Overcast at 200' AGL
Temperature
16°C / 61°F
Dewpoint
16°C / 61°F
Humidity
100%
Altimeter
30.21" Hg
Pressure
1023.02 hPa